sensor_id;sensor_type;location;lat;lon;timestamp;P1;durP1;ratioP1;P2;durP2;ratioP2
9100;SDS011;4586;52.518;13.486;2022-07-22T00:03:16;3.60;;;2.72;;
9100;SDS011;4586;52.518;13.486;2022-07-22T00:07:17;4.15;;;3.00;;
9100;SDS011;4586;52.518;13.486;2022-07-22T00:11:18;3.65;;;2.92;;
9100;SDS011;4586;52.518;13.486;2022-07-22T00:15:19;4.40;;;2.80;;
9100;SDS011;4586;52.518;13.486;2022-07-22T00:19:20;3.72;;;3.17;;
9100;SDS011;4586;52.518;13.486;2022-07-22T00:23:21;3.00;;;2.35;;
9100;SDS011;4586;52.518;13.486;2022-07-22T00:27:22;2.92;;;2.33;;
9100;SDS011;4586;52.518;13.486;2022-07-22T00:31:23;3.33;;;2.33;;
9100;SDS011;4586;52.518;13.486;2022-07-22T00:35:24;2.45;;;2.10;;
9100;SDS011;4586;52.518;13.486;2022-07-22T00:39:25;2.75;;;2.30;;
9100;SDS011;4586;52.518;13.486;2022-07-22T00:43:26;2.75;;;2.20;;
9100;SDS011;4586;52.518;13.486;2022-07-22T00:47:27;2.92;;;2.08;;
9100;SDS011;4586;52.518;13.486;2022-07-22T00:51:29;2.85;;;2.08;;
9100;SDS011;4586;52.518;13.486;2022-07-22T00:55:30;2.90;;;2.40;;
9100;SDS011;4586;52.518;13.486;2022-07-22T00:59:34;4.68;;;2.53;;
9100;SDS011;4586;52.518;13.486;2022-07-22T01:03:35;2.58;;;2.15;;
9100;SDS011;4586;52.518;13.486;2022-07-22T01:07:37;5.32;;;2.22;;
9100;SDS011;4586;52.518;13.486;2022-07-22T01:11:40;2.67;;;2.20;;
9100;SDS011;4586;52.518;13.486;2022-07-22T01:15:41;2.90;;;2.28;;
9100;SDS011;4586;52.518;13.486;2022-07-22T01:19:42;2.50;;;2.05;;
9100;SDS011;4586;52.518;13.486;2022-07-22T01:23:43;2.70;;;2.38;;
9100;SDS011;4586;52.518;13.486;2022-07-22T01:27:44;2.42;;;1.73;;
9100;SDS011;4586;52.518;13.486;2022-07-22T01:31:45;2.17;;;1.90;;
9100;SDS011;4586;52.518;13.486;2022-07-22T01:35:47;1.73;;;1.50;;
9100;SDS011;4586;52.518;13.486;2022-07-22T01:39:48;2.47;;;2.15;;
9100;SDS011;4586;52.518;13.486;2022-07-22T01:43:49;2.60;;;2.25;;
9100;SDS011;4586;52.518;13.486;2022-07-22T01:47:50;2.33;;;2.13;;
9100;SDS011;4586;52.518;13.486;2022-07-22T01:51:51;2.10;;;1.90;;
9100;SDS011;4586;52.518;13.486;2022-07-22T01:55:53;2.30;;;2.10;;
9100;SDS011;4586;52.518;13.486;2022-07-22T01:59:54;2.97;;;1.95;;
9100;SDS011;4586;52.518;13.486;2022-07-22T02:03:56;2.33;;;1.88;;
9100;SDS011;4586;52.518;13.486;2022-07-22T02:08:01;1.92;;;1.73;;
9100;SDS011;4586;52.518;13.486;2022-07-22T02:12:05;2.40;;;1.80;;
9100;SDS011;4586;52.518;13.486;2022-07-22T02:16:12;2.03;;;1.60;;
9100;SDS011;4586;52.518;13.486;2022-07-22T02:20:13;2.67;;;1.58;;
9100;SDS011;4586;52.518;13.486;2022-07-22T02:24:14;2.08;;;1.88;;
9100;SDS011;4586;52.518;13.486;2022-07-22T02:28:15;1.90;;;1.80;;
9100;SDS011;4586;52.518;13.486;2022-07-22T02:32:16;4.55;;;2.38;;
9100;SDS011;4586;52.518;13.486;2022-07-22T02:36:18;2.50;;;1.90;;
9100;SDS011;4586;52.518;13.486;2022-07-22T02:40:19;2.33;;;1.90;;
9100;SDS011;4586;52.518;13.486;2022-07-22T02:44:21;1.90;;;1.65;;
9100;SDS011;4586;52.518;13.486;2022-07-22T02:48:22;2.30;;;2.00;;
9100;SDS011;4586;52.518;13.486;2022-07-22T02:52:23;2.25;;;1.92;;
9100;SDS011;4586;52.518;13.486;2022-07-22T02:56:24;3.95;;;2.22;;
9100;SDS011;4586;52.518;13.486;2022-07-22T03:00:25;2.08;;;1.70;;
9100;SDS011;4586;52.518;13.486;2022-07-22T03:04:26;2.55;;;2.03;;
9100;SDS011;4586;52.518;13.486;2022-07-22T03:08:28;2.47;;;1.95;;
9100;SDS011;4586;52.518;13.486;2022-07-22T03:12:29;2.10;;;1.90;;
9100;SDS011;4586;52.518;13.486;2022-07-22T03:16:30;2.08;;;1.75;;
9100;SDS011;4586;52.518;13.486;2022-07-22T03:20:31;3.25;;;2.35;;
9100;SDS011;4586;52.518;13.486;2022-07-22T03:24:32;2.70;;;2.13;;
9100;SDS011;4586;52.518;13.486;2022-07-22T03:28:34;3.28;;;2.22;;
9100;SDS011;4586;52.518;13.486;2022-07-22T03:32:35;2.78;;;2.03;;
9100;SDS011;4586;52.518;13.486;2022-07-22T03:36:36;3.30;;;2.17;;
9100;SDS011;4586;52.518;13.486;2022-07-22T03:40:37;4.00;;;2.53;;
9100;SDS011;4586;52.518;13.486;2022-07-22T03:44:39;2.85;;;2.03;;
9100;SDS011;4586;52.518;13.486;2022-07-22T03:48:40;3.72;;;2.67;;
9100;SDS011;4586;52.518;13.486;2022-07-22T03:52:41;2.88;;;2.55;;
9100;SDS011;4586;52.518;13.486;2022-07-22T03:56:44;3.47;;;2.28;;
9100;SDS011;4586;52.518;13.486;2022-07-22T04:00:45;2.97;;;2.13;;
9100;SDS011;4586;52.518;13.486;2022-07-22T04:04:46;3.78;;;2.78;;
9100;SDS011;4586;52.518;13.486;2022-07-22T04:08:49;3.60;;;2.20;;
9100;SDS011;4586;52.518;13.486;2022-07-22T04:12:51;2.80;;;2.40;;
9100;SDS011;4586;52.518;13.486;2022-07-22T04:17:00;3.13;;;2.50;;
9100;SDS011;4586;52.518;13.486;2022-07-22T04:21:01;3.00;;;2.70;;
9100;SDS011;4586;52.518;13.486;2022-07-22T04:25:22;4.13;;;2.65;;
9100;SDS011;4586;52.518;13.486;2022-07-22T04:29:23;3.72;;;2.97;;
9100;SDS011;4586;52.518;13.486;2022-07-22T04:33:24;2.78;;;2.42;;
9100;SDS011;4586;52.518;13.486;2022-07-22T04:37:25;3.10;;;2.78;;
9100;SDS011;4586;52.518;13.486;2022-07-22T04:41:27;2.95;;;2.45;;
9100;SDS011;4586;52.518;13.486;2022-07-22T04:45:28;4.38;;;3.50;;
9100;SDS011;4586;52.518;13.486;2022-07-22T04:49:29;4.68;;;3.63;;
9100;SDS011;4586;52.518;13.486;2022-07-22T04:53:33;3.58;;;2.75;;
9100;SDS011;4586;52.518;13.486;2022-07-22T04:57:34;3.25;;;2.53;;
9100;SDS011;4586;52.518;13.486;2022-07-22T05:01:37;4.20;;;3.05;;
9100;SDS011;4586;52.518;13.486;2022-07-22T05:05:39;3.42;;;2.75;;
9100;SDS011;4586;52.518;13.486;2022-07-22T05:09:40;3.95;;;3.00;;
9100;SDS011;4586;52.518;13.486;2022-07-22T05:13:44;4.70;;;2.97;;
9100;SDS011;4586;52.518;13.486;2022-07-22T05:17:46;4.13;;;3.40;;
9100;SDS011;4586;52.518;13.486;2022-07-22T05:21:53;4.07;;;3.47;;
9100;SDS011;4586;52.518;13.486;2022-07-22T05:25:54;3.75;;;2.72;;
9100;SDS011;4586;52.518;13.486;2022-07-22T05:29:56;5.18;;;3.72;;
9100;SDS011;4586;52.518;13.486;2022-07-22T05:33:57;3.38;;;2.92;;
9100;SDS011;4586;52.518;13.486;2022-07-22T05:38:01;3.97;;;2.42;;
9100;SDS011;4586;52.518;13.486;2022-07-22T05:42:02;3.95;;;3.55;;
9100;SDS011;4586;52.518;13.486;2022-07-22T05:46:03;6.00;;;3.60;;
9100;SDS011;4586;52.518;13.486;2022-07-22T05:50:05;4.32;;;2.78;;
9100;SDS011;4586;52.518;13.486;2022-07-22T05:54:08;4.35;;;3.22;;
9100;SDS011;4586;52.518;13.486;2022-07-22T05:58:09;3.88;;;2.72;;
9100;SDS011;4586;52.518;13.486;2022-07-22T06:02:10;3.13;;;2.67;;
9100;SDS011;4586;52.518;13.486;2022-07-22T06:06:15;4.03;;;3.25;;
9100;SDS011;4586;52.518;13.486;2022-07-22T06:10:17;4.32;;;3.10;;
9100;SDS011;4586;52.518;13.486;2022-07-22T06:14:18;3.42;;;2.80;;
9100;SDS011;4586;52.518;13.486;2022-07-22T06:18:20;2.90;;;2.55;;
9100;SDS011;4586;52.518;13.486;2022-07-22T06:22:21;4.10;;;3.60;;
9100;SDS011;4586;52.518;13.486;2022-07-22T06:26:23;5.40;;;3.08;;
9100;SDS011;4586;52.518;13.486;2022-07-22T06:30:24;4.15;;;3.13;;
9100;SDS011;4586;52.518;13.486;2022-07-22T06:34:25;3.72;;;2.70;;
9100;SDS011;4586;52.518;13.486;2022-07-22T06:38:36;4.80;;;3.17;;
9100;SDS011;4586;52.518;13.486;2022-07-22T06:42:56;4.47;;;2.85;;
9100;SDS011;4586;52.518;13.486;2022-07-22T06:47:26;3.67;;;2.85;;
9100;SDS011;4586;52.518;13.486;2022-07-22T06:51:27;3.55;;;3.05;;
9100;SDS011;4586;52.518;13.486;2022-07-22T06:55:29;3.47;;;2.97;;
9100;SDS011;4586;52.518;13.486;2022-07-22T06:59:37;5.45;;;3.63;;
9100;SDS011;4586;52.518;13.486;2022-07-22T07:03:42;3.53;;;3.20;;
9100;SDS011;4586;52.518;13.486;2022-07-22T07:07:43;4.22;;;3.38;;
9100;SDS011;4586;52.518;13.486;2022-07-22T07:11:44;2.83;;;2.53;;
9100;SDS011;4586;52.518;13.486;2022-07-22T07:15:51;3.90;;;3.22;;
9100;SDS011;4586;52.518;13.486;2022-07-22T07:19:52;3.40;;;2.38;;
9100;SDS011;4586;52.518;13.486;2022-07-22T07:23:53;4.10;;;3.45;;
9100;SDS011;4586;52.518;13.486;2022-07-22T07:27:54;4.10;;;3.13;;
9100;SDS011;4586;52.518;13.486;2022-07-22T07:32:21;4.00;;;2.90;;
9100;SDS011;4586;52.518;13.486;2022-07-22T07:36:22;2.88;;;2.60;;
9100;SDS011;4586;52.518;13.486;2022-07-22T07:40:23;3.10;;;2.80;;
9100;SDS011;4586;52.518;13.486;2022-07-22T07:44:24;3.10;;;2.67;;
9100;SDS011;4586;52.518;13.486;2022-07-22T07:48:26;3.88;;;3.05;;
9100;SDS011;4586;52.518;13.486;2022-07-22T07:52:27;4.53;;;2.65;;
9100;SDS011;4586;52.518;13.486;2022-07-22T07:56:28;5.20;;;2.80;;
9100;SDS011;4586;52.518;13.486;2022-07-22T08:00:33;2.95;;;2.63;;
9100;SDS011;4586;52.518;13.486;2022-07-22T08:04:35;2.55;;;2.20;;
9100;SDS011;4586;52.518;13.486;2022-07-22T08:08:39;2.90;;;2.30;;
9100;SDS011;4586;52.518;13.486;2022-07-22T08:12:48;2.22;;;1.98;;
9100;SDS011;4586;52.518;13.486;2022-07-22T08:17:12;2.33;;;2.05;;
9100;SDS011;4586;52.518;13.486;2022-07-22T08:21:13;2.58;;;2.10;;
9100;SDS011;4586;52.518;13.486;2022-07-22T08:25:21;2.50;;;2.30;;
9100;SDS011;4586;52.518;13.486;2022-07-22T08:29:22;4.57;;;2.22;;
9100;SDS011;4586;52.518;13.486;2022-07-22T08:33:23;2.53;;;2.30;;
9100;SDS011;4586;52.518;13.486;2022-07-22T08:37:25;2.58;;;2.13;;
9100;SDS011;4586;52.518;13.486;2022-07-22T08:41:26;2.95;;;2.35;;
9100;SDS011;4586;52.518;13.486;2022-07-22T08:45:27;2.30;;;2.10;;
9100;SDS011;4586;52.518;13.486;2022-07-22T08:49:28;3.22;;;2.33;;
9100;SDS011;4586;52.518;13.486;2022-07-22T08:53:37;2.03;;;1.83;;
9100;SDS011;4586;52.518;13.486;2022-07-22T08:57:44;4.35;;;3.22;;
9100;SDS011;4586;52.518;13.486;2022-07-22T09:02:04;2.67;;;2.30;;
9100;SDS011;4586;52.518;13.486;2022-07-22T09:06:10;2.38;;;2.17;;
9100;SDS011;4586;52.518;13.486;2022-07-22T09:10:16;2.03;;;1.83;;
9100;SDS011;4586;52.518;13.486;2022-07-22T09:14:47;2.90;;;2.22;;
9100;SDS011;4586;52.518;13.486;2022-07-22T09:19:08;2.28;;;2.00;;
9100;SDS011;4586;52.518;13.486;2022-07-22T09:23:20;2.55;;;1.95;;
9100;SDS011;4586;52.518;13.486;2022-07-22T09:27:22;3.45;;;1.70;;
9100;SDS011;4586;52.518;13.486;2022-07-22T09:31:43;3.00;;;2.30;;
9100;SDS011;4586;52.518;13.486;2022-07-22T09:36:01;1.63;;;1.52;;
9100;SDS011;4586;52.518;13.486;2022-07-22T09:40:13;2.30;;;2.05;;
9100;SDS011;4586;52.518;13.486;2022-07-22T09:44:21;2.17;;;1.85;;
9100;SDS011;4586;52.518;13.486;2022-07-22T09:48:24;1.90;;;1.75;;
9100;SDS011;4586;52.518;13.486;2022-07-22T09:52:44;2.03;;;1.85;;
9100;SDS011;4586;52.518;13.486;2022-07-22T09:56:53;2.42;;;1.60;;
9100;SDS011;4586;52.518;13.486;2022-07-22T10:00:54;1.83;;;1.40;;
9100;SDS011;4586;52.518;13.486;2022-07-22T10:04:57;2.33;;;1.58;;
9100;SDS011;4586;52.518;13.486;2022-07-22T10:08:59;1.83;;;1.42;;
9100;SDS011;4586;52.518;13.486;2022-07-22T10:13:01;2.30;;;1.33;;
9100;SDS011;4586;52.518;13.486;2022-07-22T10:17:03;1.40;;;1.30;;
9100;SDS011;4586;52.518;13.486;2022-07-22T10:21:05;1.40;;;1.30;;
9100;SDS011;4586;52.518;13.486;2022-07-22T10:25:07;1.27;;;1.15;;
9100;SDS011;4586;52.518;13.486;2022-07-22T10:29:42;1.38;;;1.15;;
9100;SDS011;4586;52.518;13.486;2022-07-22T10:33:36;1.90;;;1.60;;
9100;SDS011;4586;52.518;13.486;2022-07-22T10:37:38;1.23;;;1.10;;
9100;SDS011;4586;52.518;13.486;2022-07-22T10:41:43;1.48;;;1.13;;
9100;SDS011;4586;52.518;13.486;2022-07-22T10:45:46;1.70;;;1.60;;
9100;SDS011;4586;52.518;13.486;2022-07-22T10:49:47;1.55;;;1.30;;
9100;SDS011;4586;52.518;13.486;2022-07-22T10:57:53;1.50;;;1.40;;
9100;SDS011;4586;52.518;13.486;2022-07-22T11:01:53;4.57;;;1.65;;
9100;SDS011;4586;52.518;13.486;2022-07-22T11:05:55;1.52;;;1.30;;
9100;SDS011;4586;52.518;13.486;2022-07-22T11:10:07;1.40;;;1.30;;
9100;SDS011;4586;52.518;13.486;2022-07-22T11:18:12;1.60;;;1.50;;
9100;SDS011;4586;52.518;13.486;2022-07-22T11:22:13;1.40;;;1.30;;
9100;SDS011;4586;52.518;13.486;2022-07-22T11:26:16;1.48;;;1.38;;
9100;SDS011;4586;52.518;13.486;2022-07-22T11:30:17;2.00;;;1.40;;
9100;SDS011;4586;52.518;13.486;2022-07-22T11:34:18;1.55;;;1.45;;
9100;SDS011;4586;52.518;13.486;2022-07-22T11:38:19;1.98;;;1.77;;
9100;SDS011;4586;52.518;13.486;2022-07-22T11:42:24;2.13;;;1.92;;
9100;SDS011;4586;52.518;13.486;2022-07-22T11:46:25;2.15;;;1.70;;
9100;SDS011;4586;52.518;13.486;2022-07-22T11:50:30;1.77;;;1.67;;
9100;SDS011;4586;52.518;13.486;2022-07-22T11:54:31;2.08;;;1.88;;
9100;SDS011;4586;52.518;13.486;2022-07-22T11:58:40;2.05;;;1.75;;
9100;SDS011;4586;52.518;13.486;2022-07-22T12:02:41;1.60;;;1.45;;
9100;SDS011;4586;52.518;13.486;2022-07-22T12:06:43;2.15;;;1.58;;
9100;SDS011;4586;52.518;13.486;2022-07-22T12:10:44;1.60;;;1.45;;
9100;SDS011;4586;52.518;13.486;2022-07-22T12:14:46;1.73;;;1.63;;
9100;SDS011;4586;52.518;13.486;2022-07-22T12:23:14;1.50;;;1.40;;
9100;SDS011;4586;52.518;13.486;2022-07-22T12:27:16;1.90;;;1.60;;
9100;SDS011;4586;52.518;13.486;2022-07-22T12:31:17;1.83;;;1.63;;
9100;SDS011;4586;52.518;13.486;2022-07-22T12:35:18;1.90;;;1.80;;
9100;SDS011;4586;52.518;13.486;2022-07-22T12:39:20;1.95;;;1.40;;
9100;SDS011;4586;52.518;13.486;2022-07-22T12:43:25;1.67;;;1.58;;
9100;SDS011;4586;52.518;13.486;2022-07-22T12:51:42;1.90;;;1.73;;
9100;SDS011;4586;52.518;13.486;2022-07-22T12:55:53;1.30;;;1.20;;
9100;SDS011;4586;52.518;13.486;2022-07-22T12:59:54;2.25;;;1.27;;
9100;SDS011;4586;52.518;13.486;2022-07-22T13:03:55;2.45;;;1.30;;
9100;SDS011;4586;52.518;13.486;2022-07-22T13:07:56;1.25;;;1.15;;
9100;SDS011;4586;52.518;13.486;2022-07-22T13:11:57;1.88;;;1.73;;
9100;SDS011;4586;52.518;13.486;2022-07-22T13:15:58;1.40;;;1.25;;
9100;SDS011;4586;52.518;13.486;2022-07-22T13:19:59;1.20;;;1.10;;
9100;SDS011;4586;52.518;13.486;2022-07-22T13:24:00;1.20;;;1.10;;
9100;SDS011;4586;52.518;13.486;2022-07-22T13:28:01;1.80;;;1.70;;
9100;SDS011;4586;52.518;13.486;2022-07-22T13:32:02;1.20;;;0.93;;
9100;SDS011;4586;52.518;13.486;2022-07-22T13:36:03;1.48;;;1.15;;
9100;SDS011;4586;52.518;13.486;2022-07-22T13:40:05;1.20;;;1.10;;
9100;SDS011;4586;52.518;13.486;2022-07-22T13:44:06;1.00;;;1.00;;
9100;SDS011;4586;52.518;13.486;2022-07-22T13:48:07;1.02;;;1.00;;
9100;SDS011;4586;52.518;13.486;2022-07-22T13:52:08;1.58;;;1.17;;
9100;SDS011;4586;52.518;13.486;2022-07-22T13:56:09;0.77;;;0.77;;
9100;SDS011;4586;52.518;13.486;2022-07-22T14:00:10;1.00;;;0.93;;
9100;SDS011;4586;52.518;13.486;2022-07-22T14:04:11;1.17;;;1.08;;
9100;SDS011;4586;52.518;13.486;2022-07-22T14:08:12;2.83;;;1.13;;
9100;SDS011;4586;52.518;13.486;2022-07-22T14:12:13;1.10;;;1.00;;
9100;SDS011;4586;52.518;13.486;2022-07-22T14:16:14;1.23;;;1.05;;
9100;SDS011;4586;52.518;13.486;2022-07-22T14:20:15;0.98;;;0.98;;
9100;SDS011;4586;52.518;13.486;2022-07-22T14:24:16;1.20;;;1.10;;
9100;SDS011;4586;52.518;13.486;2022-07-22T14:28:17;1.27;;;1.17;;
9100;SDS011;4586;52.518;13.486;2022-07-22T14:32:18;0.68;;;0.68;;
9100;SDS011;4586;52.518;13.486;2022-07-22T14:36:19;1.20;;;0.90;;
9100;SDS011;4586;52.518;13.486;2022-07-22T14:40:20;0.90;;;0.90;;
9100;SDS011;4586;52.518;13.486;2022-07-22T14:44:22;0.88;;;0.85;;
9100;SDS011;4586;52.518;13.486;2022-07-22T14:48:23;1.95;;;1.60;;
9100;SDS011;4586;52.518;13.486;2022-07-22T14:52:23;1.15;;;1.02;;
9100;SDS011;4586;52.518;13.486;2022-07-22T14:56:25;0.85;;;0.85;;
9100;SDS011;4586;52.518;13.486;2022-07-22T15:00:26;1.00;;;0.90;;
9100;SDS011;4586;52.518;13.486;2022-07-22T15:04:27;0.88;;;0.88;;
9100;SDS011;4586;52.518;13.486;2022-07-22T15:08:28;0.88;;;0.88;;
9100;SDS011;4586;52.518;13.486;2022-07-22T15:12:29;0.80;;;0.80;;
9100;SDS011;4586;52.518;13.486;2022-07-22T15:16:30;2.13;;;1.08;;
9100;SDS011;4586;52.518;13.486;2022-07-22T15:20:31;3.03;;;0.73;;
9100;SDS011;4586;52.518;13.486;2022-07-22T15:24:32;0.77;;;0.77;;
9100;SDS011;4586;52.518;13.486;2022-07-22T15:28:33;1.00;;;0.90;;
9100;SDS011;4586;52.518;13.486;2022-07-22T15:32:34;0.63;;;0.63;;
9100;SDS011;4586;52.518;13.486;2022-07-22T15:36:36;1.60;;;1.00;;
9100;SDS011;4586;52.518;13.486;2022-07-22T15:40:36;1.13;;;1.00;;
9100;SDS011;4586;52.518;13.486;2022-07-22T15:44:37;1.05;;;0.90;;
9100;SDS011;4586;52.518;13.486;2022-07-22T15:48:38;1.42;;;1.17;;
9100;SDS011;4586;52.518;13.486;2022-07-22T15:52:40;1.10;;;0.88;;
9100;SDS011;4586;52.518;13.486;2022-07-22T15:56:41;1.20;;;0.98;;
9100;SDS011;4586;52.518;13.486;2022-07-22T16:00:42;1.10;;;1.00;;
9100;SDS011;4586;52.518;13.486;2022-07-22T16:04:43;1.33;;;1.23;;
9100;SDS011;4586;52.518;13.486;2022-07-22T16:08:44;1.30;;;1.20;;
9100;SDS011;4586;52.518;13.486;2022-07-22T16:12:45;1.30;;;1.20;;
9100;SDS011;4586;52.518;13.486;2022-07-22T16:16:46;1.40;;;1.30;;
9100;SDS011;4586;52.518;13.486;2022-07-22T16:20:47;1.50;;;1.00;;
9100;SDS011;4586;52.518;13.486;2022-07-22T16:24:48;1.33;;;1.10;;
9100;SDS011;4586;52.518;13.486;2022-07-22T16:28:49;1.10;;;1.00;;
9100;SDS011;4586;52.518;13.486;2022-07-22T16:32:50;1.17;;;1.08;;
9100;SDS011;4586;52.518;13.486;2022-07-22T16:36:51;1.50;;;0.80;;
9100;SDS011;4586;52.518;13.486;2022-07-22T16:40:52;1.73;;;1.17;;
9100;SDS011;4586;52.518;13.486;2022-07-22T16:44:53;1.05;;;0.95;;
9100;SDS011;4586;52.518;13.486;2022-07-22T16:48:54;1.20;;;1.10;;
9100;SDS011;4586;52.518;13.486;2022-07-22T16:52:55;1.60;;;1.30;;
9100;SDS011;4586;52.518;13.486;2022-07-22T16:56:56;5.30;;;4.00;;
9100;SDS011;4586;52.518;13.486;2022-07-22T17:00:57;2.42;;;1.52;;
9100;SDS011;4586;52.518;13.486;2022-07-22T17:04:58;1.23;;;1.13;;
9100;SDS011;4586;52.518;13.486;2022-07-22T17:08:59;1.48;;;1.38;;
9100;SDS011;4586;52.518;13.486;2022-07-22T17:13:00;1.60;;;1.33;;
9100;SDS011;4586;52.518;13.486;2022-07-22T17:17:01;1.38;;;1.10;;
9100;SDS011;4586;52.518;13.486;2022-07-22T17:21:03;0.75;;;0.75;;
9100;SDS011;4586;52.518;13.486;2022-07-22T17:25:05;2.80;;;2.08;;
9100;SDS011;4586;52.518;13.486;2022-07-22T17:29:06;1.45;;;1.20;;
9100;SDS011;4586;52.518;13.486;2022-07-22T17:33:07;2.22;;;1.27;;
9100;SDS011;4586;52.518;13.486;2022-07-22T17:37:08;1.30;;;1.20;;
9100;SDS011;4586;52.518;13.486;2022-07-22T17:41:09;1.35;;;1.25;;
9100;SDS011;4586;52.518;13.486;2022-07-22T17:45:10;1.25;;;1.15;;
9100;SDS011;4586;52.518;13.486;2022-07-22T17:49:11;2.17;;;1.38;;
9100;SDS011;4586;52.518;13.486;2022-07-22T17:53:12;1.83;;;1.35;;
9100;SDS011;4586;52.518;13.486;2022-07-22T17:57:13;1.83;;;1.38;;
9100;SDS011;4586;52.518;13.486;2022-07-22T18:01:14;1.42;;;1.33;;
9100;SDS011;4586;52.518;13.486;2022-07-22T18:05:15;1.88;;;1.30;;
9100;SDS011;4586;52.518;13.486;2022-07-22T18:09:16;2.25;;;2.05;;
9100;SDS011;4586;52.518;13.486;2022-07-22T18:13:17;2.45;;;1.75;;
9100;SDS011;4586;52.518;13.486;2022-07-22T18:17:18;2.28;;;1.83;;
9100;SDS011;4586;52.518;13.486;2022-07-22T18:21:19;1.75;;;1.60;;
9100;SDS011;4586;52.518;13.486;2022-07-22T18:25:20;1.90;;;1.63;;
9100;SDS011;4586;52.518;13.486;2022-07-22T18:29:21;1.20;;;1.10;;
9100;SDS011;4586;52.518;13.486;2022-07-22T18:33:23;2.33;;;1.88;;
9100;SDS011;4586;52.518;13.486;2022-07-22T18:37:24;1.52;;;1.42;;
9100;SDS011;4586;52.518;13.486;2022-07-22T18:41:25;2.60;;;1.17;;
9100;SDS011;4586;52.518;13.486;2022-07-22T18:45:26;1.42;;;1.33;;
9100;SDS011;4586;52.518;13.486;2022-07-22T18:49:27;1.50;;;1.40;;
9100;SDS011;4586;52.518;13.486;2022-07-22T18:53:28;2.05;;;1.50;;
9100;SDS011;4586;52.518;13.486;2022-07-22T18:57:29;1.90;;;1.67;;
9100;SDS011;4586;52.518;13.486;2022-07-22T19:01:30;2.53;;;1.70;;
9100;SDS011;4586;52.518;13.486;2022-07-22T19:05:32;2.50;;;2.30;;
9100;SDS011;4586;52.518;13.486;2022-07-22T19:09:33;1.85;;;1.50;;
9100;SDS011;4586;52.518;13.486;2022-07-22T19:13:34;2.28;;;1.75;;
9100;SDS011;4586;52.518;13.486;2022-07-22T19:17:34;1.83;;;1.52;;
9100;SDS011;4586;52.518;13.486;2022-07-22T19:21:35;2.03;;;1.65;;
9100;SDS011;4586;52.518;13.486;2022-07-22T19:25:37;2.22;;;1.80;;
9100;SDS011;4586;52.518;13.486;2022-07-22T19:29:37;1.70;;;1.60;;
9100;SDS011;4586;52.518;13.486;2022-07-22T19:33:39;2.30;;;1.33;;
9100;SDS011;4586;52.518;13.486;2022-07-22T19:37:39;1.80;;;1.58;;
9100;SDS011;4586;52.518;13.486;2022-07-22T19:41:40;3.40;;;2.22;;
9100;SDS011;4586;52.518;13.486;2022-07-22T19:45:41;2.63;;;1.85;;
9100;SDS011;4586;52.518;13.486;2022-07-22T19:49:42;2.10;;;1.95;;
9100;SDS011;4586;52.518;13.486;2022-07-22T19:53:43;3.63;;;2.47;;
9100;SDS011;4586;52.518;13.486;2022-07-22T19:57:44;3.90;;;3.28;;
9100;SDS011;4586;52.518;13.486;2022-07-22T20:01:45;2.45;;;2.08;;
9100;SDS011;4586;52.518;13.486;2022-07-22T20:05:46;3.85;;;2.10;;
9100;SDS011;4586;52.518;13.486;2022-07-22T20:09:47;3.22;;;1.90;;
9100;SDS011;4586;52.518;13.486;2022-07-22T20:13:48;2.47;;;1.92;;
9100;SDS011;4586;52.518;13.486;2022-07-22T20:17:49;2.42;;;1.75;;
9100;SDS011;4586;52.518;13.486;2022-07-22T20:21:50;5.10;;;3.47;;
9100;SDS011;4586;52.518;13.486;2022-07-22T20:25:51;2.50;;;2.30;;
9100;SDS011;4586;52.518;13.486;2022-07-22T20:29:52;3.13;;;2.60;;
9100;SDS011;4586;52.518;13.486;2022-07-22T20:33:53;2.28;;;1.83;;
9100;SDS011;4586;52.518;13.486;2022-07-22T20:37:54;3.58;;;1.92;;
9100;SDS011;4586;52.518;13.486;2022-07-22T20:41:55;2.83;;;2.22;;
9100;SDS011;4586;52.518;13.486;2022-07-22T20:45:56;3.08;;;2.30;;
9100;SDS011;4586;52.518;13.486;2022-07-22T20:49:57;2.35;;;2.15;;
9100;SDS011;4586;52.518;13.486;2022-07-22T20:53:58;3.40;;;2.10;;
9100;SDS011;4586;52.518;13.486;2022-07-22T20:57:59;2.53;;;2.05;;
9100;SDS011;4586;52.518;13.486;2022-07-22T21:02:00;3.17;;;2.20;;
9100;SDS011;4586;52.518;13.486;2022-07-22T21:06:01;3.30;;;2.95;;
9100;SDS011;4586;52.518;13.486;2022-07-22T21:10:02;4.03;;;2.30;;
9100;SDS011;4586;52.518;13.486;2022-07-22T21:14:03;2.55;;;2.15;;
9100;SDS011;4586;52.518;13.486;2022-07-22T21:18:04;2.95;;;2.53;;
9100;SDS011;4586;52.518;13.486;2022-07-22T21:22:05;4.28;;;2.63;;
9100;SDS011;4586;52.518;13.486;2022-07-22T21:26:06;2.67;;;2.13;;
9100;SDS011;4586;52.518;13.486;2022-07-22T21:30:08;2.10;;;1.90;;
9100;SDS011;4586;52.518;13.486;2022-07-22T21:34:09;3.28;;;2.30;;
9100;SDS011;4586;52.518;13.486;2022-07-22T21:38:10;2.35;;;2.13;;
9100;SDS011;4586;52.518;13.486;2022-07-22T21:42:11;2.47;;;2.10;;
9100;SDS011;4586;52.518;13.486;2022-07-22T21:46:11;3.97;;;2.10;;
9100;SDS011;4586;52.518;13.486;2022-07-22T21:50:13;3.97;;;1.75;;
9100;SDS011;4586;52.518;13.486;2022-07-22T21:54:13;3.10;;;2.10;;
9100;SDS011;4586;52.518;13.486;2022-07-22T21:58:14;3.65;;;2.58;;
9100;SDS011;4586;52.518;13.486;2022-07-22T22:02:15;4.10;;;2.17;;
9100;SDS011;4586;52.518;13.486;2022-07-22T22:06:16;2.53;;;2.17;;
9100;SDS011;4586;52.518;13.486;2022-07-22T22:10:17;2.90;;;2.20;;
9100;SDS011;4586;52.518;13.486;2022-07-22T22:14:18;3.10;;;2.05;;
9100;SDS011;4586;52.518;13.486;2022-07-22T22:18:19;3.72;;;2.50;;
9100;SDS011;4586;52.518;13.486;2022-07-22T22:22:20;2.65;;;1.92;;
9100;SDS011;4586;52.518;13.486;2022-07-22T22:26:21;2.58;;;2.13;;
9100;SDS011;4586;52.518;13.486;2022-07-22T22:30:22;4.03;;;2.67;;
9100;SDS011;4586;52.518;13.486;2022-07-22T22:34:24;3.65;;;2.30;;
9100;SDS011;4586;52.518;13.486;2022-07-22T22:38:25;4.30;;;2.83;;
9100;SDS011;4586;52.518;13.486;2022-07-22T22:42:26;5.55;;;3.75;;
9100;SDS011;4586;52.518;13.486;2022-07-22T22:46:27;5.13;;;2.85;;
9100;SDS011;4586;52.518;13.486;2022-07-22T22:50:28;4.43;;;2.55;;
9100;SDS011;4586;52.518;13.486;2022-07-22T22:54:29;7.22;;;3.40;;
9100;SDS011;4586;52.518;13.486;2022-07-22T22:58:30;3.60;;;2.78;;
9100;SDS011;4586;52.518;13.486;2022-07-22T23:02:31;4.55;;;2.97;;
9100;SDS011;4586;52.518;13.486;2022-07-22T23:06:32;4.55;;;2.63;;
9100;SDS011;4586;52.518;13.486;2022-07-22T23:10:33;5.07;;;2.97;;
9100;SDS011;4586;52.518;13.486;2022-07-22T23:14:35;3.75;;;2.58;;
9100;SDS011;4586;52.518;13.486;2022-07-22T23:18:36;3.58;;;2.53;;
9100;SDS011;4586;52.518;13.486;2022-07-22T23:22:37;4.20;;;2.88;;
9100;SDS011;4586;52.518;13.486;2022-07-22T23:26:38;2.88;;;2.40;;
9100;SDS011;4586;52.518;13.486;2022-07-22T23:30:39;3.75;;;2.00;;
9100;SDS011;4586;52.518;13.486;2022-07-22T23:34:40;3.92;;;3.22;;
9100;SDS011;4586;52.518;13.486;2022-07-22T23:38:41;5.90;;;2.00;;
9100;SDS011;4586;52.518;13.486;2022-07-22T23:42:42;3.40;;;2.40;;
9100;SDS011;4586;52.518;13.486;2022-07-22T23:46:43;6.30;;;3.13;;
9100;SDS011;4586;52.518;13.486;2022-07-22T23:50:44;3.67;;;2.42;;
9100;SDS011;4586;52.518;13.486;2022-07-22T23:54:44;3.42;;;2.50;;
9100;SDS011;4586;52.518;13.486;2022-07-22T23:58:46;2.70;;;2.05;;
